createdAt,value
2018-09-18T00:00:49.521Z,19.60
2018-09-18T00:03:18.510Z,19.50
2018-09-18T00:05:47.156Z,19.50
2018-09-18T00:08:15.015Z,19.50
2018-09-18T00:10:42.570Z,19.40
2018-09-18T00:13:10.496Z,19.40
2018-09-18T00:15:38.175Z,19.40
2018-09-18T00:18:18.192Z,19.40
2018-09-18T00:20:45.844Z,19.30
2018-09-18T00:25:51.067Z,19.30
2018-09-18T00:28:18.873Z,19.30
2018-09-18T00:30:46.924Z,19.30
2018-09-18T00:33:19.006Z,19.20
2018-09-18T00:35:50.421Z,19.20
2018-09-18T00:41:00.976Z,19.20
2018-09-18T00:43:28.614Z,19.10
2018-09-18T00:45:56.158Z,19.00
2018-09-18T00:48:23.754Z,19.10
2018-09-18T00:50:51.644Z,19.10
2018-09-18T00:53:20.549Z,19.00
2018-09-18T00:55:48.272Z,19.00
2018-09-18T00:58:16.438Z,19.00
2018-09-18T01:00:44.044Z,19.00
2018-09-18T01:03:11.654Z,19.00
2018-09-18T01:05:47.721Z,19.00
2018-09-18T01:08:19.836Z,18.90
2018-09-18T01:10:47.615Z,18.90
2018-09-18T01:13:15.476Z,18.90
2018-09-18T01:15:43.263Z,18.90
2018-09-18T01:18:11.355Z,18.90
2018-09-18T01:23:31.954Z,18.90
2018-09-18T01:25:59.889Z,18.90
2018-09-18T01:28:27.728Z,18.90
2018-09-18T01:30:55.297Z,18.80
2018-09-18T01:33:22.843Z,18.70
2018-09-18T01:35:50.398Z,18.70
2018-09-18T01:38:18.993Z,18.70
2018-09-18T01:43:27.899Z,18.70
2018-09-18T01:45:55.712Z,18.70
2018-09-18T01:48:33.196Z,18.60
2018-09-18T01:51:00.904Z,18.60
2018-09-18T01:53:28.444Z,18.50
2018-09-18T01:55:57.149Z,18.40
2018-09-18T01:58:24.743Z,18.40
2018-09-18T02:00:52.506Z,18.40
2018-09-18T02:03:20.556Z,18.40
2018-09-18T02:05:49.506Z,18.50
2018-09-18T02:08:17.373Z,18.50
2018-09-18T02:10:45.240Z,18.50
2018-09-18T02:13:12.855Z,18.50
2018-09-18T02:18:43.535Z,18.40
2018-09-18T02:21:11.127Z,18.40
2018-09-18T02:23:38.949Z,18.40
2018-09-18T02:26:06.871Z,18.30
2018-09-18T02:28:34.562Z,18.30
2018-09-18T02:31:28.583Z,18.20
2018-09-18T02:40:02.419Z,18.20
2018-09-18T02:42:30.111Z,18.20
2018-09-18T02:44:57.959Z,18.20
2018-09-18T02:47:25.773Z,18.20
2018-09-18T02:49:53.413Z,18.20
2018-09-18T02:52:21.043Z,18.20
2018-09-18T03:00:54.544Z,18.20
2018-09-18T03:03:22.177Z,18.20
2018-09-18T03:06:17.284Z,18.20
2018-09-18T03:08:44.994Z,18.20
2018-09-18T03:11:12.694Z,18.10
2018-09-18T03:16:49.124Z,18.10
2018-09-18T03:19:16.871Z,18.10
2018-09-18T03:21:49.057Z,18.10
2018-09-18T03:24:16.717Z,18.10
2018-09-18T03:26:44.318Z,18.00
2018-09-18T03:29:24.629Z,18.00
2018-09-18T03:31:52.352Z,18.00
2018-09-18T03:34:49.172Z,17.90
2018-09-18T03:37:16.871Z,17.90
2018-09-18T03:39:44.556Z,17.90
2018-09-18T03:42:12.263Z,18.00
2018-09-18T03:44:39.896Z,17.90
2018-09-18T03:47:07.558Z,17.90
2018-09-18T03:49:35.881Z,17.80
2018-09-18T03:52:04.162Z,17.80
2018-09-18T03:54:34.224Z,17.80
2018-09-18T03:57:18.857Z,17.80
2018-09-18T03:59:47.624Z,17.80
2018-09-18T04:02:15.767Z,17.70
2018-09-18T04:04:44.367Z,17.70
2018-09-18T04:07:19.208Z,17.70
2018-09-18T04:09:47.047Z,17.60
2018-09-18T04:12:33.516Z,17.70
2018-09-18T04:15:01.535Z,17.60
2018-09-18T04:17:29.415Z,17.60
2018-09-18T04:19:57.118Z,17.60
2018-09-18T04:22:25.019Z,17.60
2018-09-18T04:24:52.783Z,17.60
2018-09-18T04:27:20.491Z,17.60
2018-09-18T04:32:41.016Z,17.50
2018-09-18T04:38:18.809Z,17.50
2018-09-18T04:40:47.096Z,17.50
2018-09-18T04:43:15.564Z,17.50
2018-09-18T04:45:43.708Z,17.50
2018-09-18T04:48:13.011Z,17.50
2018-09-18T04:53:32.521Z,17.40
2018-09-18T04:56:02.079Z,17.50
2018-09-18T04:58:31.085Z,17.50
2018-09-18T05:04:07.224Z,17.50
2018-09-18T05:06:35.062Z,17.50
2018-09-18T05:11:55.199Z,17.40
2018-09-18T05:14:23.419Z,17.40
2018-09-18T05:16:51.234Z,17.30
2018-09-18T05:19:18.816Z,17.40
2018-09-18T05:25:16.910Z,17.30
2018-09-18T05:27:44.613Z,17.40
2018-09-18T05:30:12.232Z,17.40
2018-09-18T05:32:39.966Z,17.40
2018-09-18T05:35:07.708Z,17.30
2018-09-18T05:37:36.341Z,17.40
2018-09-18T05:40:18.266Z,17.40
2018-09-18T05:42:46.003Z,17.40
2018-09-18T05:45:14.195Z,17.30
2018-09-18T05:47:52.796Z,17.20
2018-09-18T05:50:20.486Z,17.30
2018-09-18T05:52:48.174Z,17.30
2018-09-18T05:55:15.934Z,17.40
2018-09-18T05:57:44.051Z,17.40
2018-09-18T06:00:11.815Z,17.40
2018-09-18T06:02:39.760Z,17.40
2018-09-18T06:05:07.490Z,17.40
2018-09-18T06:07:35.145Z,17.40
2018-09-18T06:10:02.802Z,17.40
2018-09-18T06:15:35.207Z,17.40
2018-09-18T06:18:20.232Z,17.50
2018-09-18T06:20:48.396Z,17.50
2018-09-18T06:23:16.188Z,17.50
2018-09-18T06:25:44.032Z,17.60
2018-09-18T06:28:12.044Z,17.60
2018-09-18T06:30:39.652Z,17.60
2018-09-18T06:33:08.125Z,17.60
2018-09-18T06:35:36.347Z,17.70
2018-09-18T06:38:04.149Z,17.70
2018-09-18T06:40:31.740Z,17.70
2018-09-18T06:42:59.441Z,17.80
2018-09-18T06:45:27.382Z,17.80
2018-09-18T06:47:55.118Z,17.90
2018-09-18T06:50:22.819Z,17.90
2018-09-18T06:52:50.438Z,17.90
2018-09-18T06:55:18.284Z,17.90
2018-09-18T06:57:59.845Z,18.00
2018-09-18T07:00:37.364Z,18.00
2018-09-18T07:07:09.524Z,18.10
2018-09-18T07:09:48.717Z,18.20
2018-09-18T07:12:31.187Z,18.20
2018-09-18T07:15:19.207Z,18.20
2018-09-18T07:17:47.291Z,18.20
2018-09-18T07:20:15.095Z,18.30
2018-09-18T07:22:44.441Z,18.40
2018-09-18T07:25:12.243Z,18.50
2018-09-18T07:27:40.671Z,18.50
2018-09-18T07:30:08.855Z,18.60
2018-09-18T07:32:37.864Z,18.70
2018-09-18T07:35:21.624Z,18.70
2018-09-18T07:37:49.317Z,18.70
2018-09-18T07:43:18.447Z,18.90
2018-09-18T07:45:49.398Z,19.00
2018-09-18T07:48:22.135Z,19.00
2018-09-18T07:50:55.900Z,19.10
2018-09-18T07:53:23.582Z,19.10
2018-09-18T07:55:51.894Z,19.20
2018-09-18T07:58:19.606Z,19.30
2018-09-18T08:01:07.127Z,19.30
2018-09-18T08:06:38.194Z,19.40
2018-09-18T08:09:19.980Z,19.50
2018-09-18T08:12:17.933Z,19.50
2018-09-18T08:14:45.767Z,19.60
2018-09-18T08:17:13.596Z,19.70
2018-09-18T08:19:41.381Z,19.70
2018-09-18T08:22:08.826Z,19.80
2018-09-18T08:24:38.548Z,19.80
2018-09-18T08:27:06.365Z,19.90
2018-09-18T08:29:34.644Z,20.00
2018-09-18T08:32:04.880Z,20.00
2018-09-18T08:34:32.778Z,20.10
2018-09-18T08:37:08.841Z,20.10
2018-09-18T08:39:36.546Z,20.20
2018-09-18T08:42:04.261Z,20.30
2018-09-18T08:44:34.728Z,20.30
2018-09-18T08:47:02.828Z,20.40
2018-09-18T08:52:14.434Z,20.50
2018-09-18T08:54:42.196Z,20.50
2018-09-18T08:57:09.938Z,20.60
2018-09-18T08:59:37.721Z,20.70
2018-09-18T09:02:05.288Z,20.70
2018-09-18T09:04:33.103Z,20.80
2018-09-18T09:07:00.991Z,20.80
2018-09-18T09:09:28.742Z,20.90
2018-09-18T09:11:56.448Z,20.90
2018-09-18T09:14:26.133Z,21.00
2018-09-18T09:16:54.169Z,21.10
2018-09-18T09:19:23.013Z,21.10
2018-09-18T09:21:50.801Z,21.20
2018-09-18T09:24:18.712Z,21.30
2018-09-18T09:26:46.578Z,21.30
2018-09-18T09:29:14.308Z,21.40
2018-09-18T09:31:41.908Z,21.40
2018-09-18T09:34:09.606Z,21.50
2018-09-18T09:36:37.260Z,21.50
2018-09-18T09:39:07.702Z,21.60
2018-09-18T09:41:35.965Z,21.60
2018-09-18T09:44:06.839Z,21.70
2018-09-18T09:46:35.261Z,21.80
2018-09-18T09:49:03.855Z,21.90
2018-09-18T09:51:32.881Z,21.90
2018-09-18T09:54:00.642Z,22.00
2018-09-18T09:56:28.668Z,22.10
2018-09-18T09:58:57.893Z,22.10
2018-09-18T10:01:31.199Z,22.20
2018-09-18T10:03:59.230Z,22.30
2018-09-18T10:06:27.331Z,22.40
2018-09-18T10:08:55.469Z,22.50
2018-09-18T10:11:24.391Z,22.60
2018-09-18T10:13:53.040Z,22.70
2018-09-18T10:16:21.001Z,22.70
2018-09-18T10:18:50.765Z,22.80
2018-09-18T10:21:20.213Z,22.90
2018-09-18T10:23:48.395Z,22.90
2018-09-18T10:26:16.228Z,23.00
2018-09-18T10:31:38.727Z,23.10
2018-09-18T10:34:06.604Z,23.20
2018-09-18T10:36:34.932Z,23.20
2018-09-18T10:39:04.549Z,23.40
2018-09-18T10:41:39.906Z,23.40
2018-09-18T10:44:08.180Z,23.50
2018-09-18T10:46:36.435Z,23.50
2018-09-18T10:49:04.647Z,23.60
2018-09-18T10:51:32.302Z,23.60
2018-09-18T10:54:02.365Z,23.70
2018-09-18T10:56:31.797Z,23.70
2018-09-18T10:59:02.412Z,23.80
2018-09-18T11:01:33.483Z,23.90
2018-09-18T11:04:02.329Z,24.00
2018-09-18T11:06:30.229Z,24.00
2018-09-18T11:08:58.480Z,24.10
2018-09-18T11:11:26.660Z,24.10
2018-09-18T11:13:54.784Z,24.20
2018-09-18T11:16:22.774Z,24.20
2018-09-18T11:18:50.977Z,24.30
2018-09-18T11:21:19.019Z,24.30
2018-09-18T11:23:47.325Z,24.40
2018-09-18T11:26:15.336Z,24.50
2018-09-18T11:28:42.984Z,24.60
2018-09-18T11:31:14.179Z,24.60
2018-09-18T11:33:41.903Z,24.60
2018-09-18T11:36:09.631Z,24.80
2018-09-18T11:38:37.463Z,24.70
2018-09-18T11:41:05.269Z,24.80
2018-09-18T11:43:33.112Z,25.00
2018-09-18T11:46:02.136Z,25.00
2018-09-18T11:48:29.817Z,25.00
2018-09-18T11:50:57.894Z,25.10
2018-09-18T11:53:27.956Z,25.30
2018-09-18T11:55:58.251Z,25.50
2018-09-18T11:58:27.165Z,25.60
2018-09-18T12:00:57.151Z,25.70
2018-09-18T12:03:34.106Z,25.70
2018-09-18T12:06:04.305Z,25.70
2018-09-18T12:08:33.423Z,25.90
2018-09-18T12:11:08.451Z,26.10
2018-09-18T12:13:36.322Z,26.10
2018-09-18T12:16:04.405Z,26.20
2018-09-18T12:18:38.015Z,26.40
2018-09-18T12:21:06.970Z,26.50
2018-09-18T12:23:34.967Z,26.60
2018-09-18T12:26:03.537Z,26.80
2018-09-18T12:28:31.281Z,27.10
2018-09-18T12:31:00.020Z,27.40
2018-09-18T12:33:34.433Z,27.60
2018-09-18T12:36:02.432Z,27.60
2018-09-18T12:38:45.361Z,27.80
2018-09-18T12:41:14.803Z,27.90
2018-09-18T12:43:42.538Z,28.10
2018-09-18T12:46:10.451Z,28.00
2018-09-18T12:48:40.626Z,28.00
2018-09-18T12:51:08.689Z,28.00
2018-09-18T12:53:36.623Z,28.00
2018-09-18T12:56:10.243Z,27.90
2018-09-18T12:58:44.663Z,27.90
2018-09-18T13:01:13.427Z,27.90
2018-09-18T13:03:45.492Z,27.80
2018-09-18T13:06:32.493Z,27.80
2018-09-18T13:09:00.356Z,27.80
2018-09-18T13:14:35.257Z,27.80
2018-09-18T13:17:03.728Z,27.80
2018-09-18T13:19:34.408Z,27.70
2018-09-18T13:24:44.557Z,27.70
2018-09-18T13:27:15.411Z,27.70
2018-09-18T13:30:03.246Z,27.70
2018-09-18T13:32:44.184Z,27.70
2018-09-18T13:35:14.122Z,27.60
2018-09-18T13:37:42.789Z,27.60
2018-09-18T13:40:10.687Z,27.60
2018-09-18T13:42:38.348Z,27.60
2018-09-18T13:45:06.097Z,27.50
2018-09-18T13:47:33.698Z,27.50
2018-09-18T13:50:02.427Z,27.50
2018-09-18T13:52:30.148Z,27.60
2018-09-18T13:55:01.219Z,27.60
2018-09-18T13:57:32.912Z,27.60
2018-09-18T14:00:00.892Z,27.60
2018-09-18T14:02:28.774Z,27.60
2018-09-18T14:04:56.818Z,27.60
2018-09-18T14:10:29.998Z,27.60
2018-09-18T14:12:58.845Z,27.60
2018-09-18T14:15:30.501Z,27.60
2018-09-18T14:17:58.242Z,27.60
2018-09-18T14:20:27.089Z,27.60
2018-09-18T14:22:57.565Z,27.60
2018-09-18T14:25:33.640Z,27.70
2018-09-18T14:28:03.557Z,27.70
2018-09-18T14:33:35.163Z,27.70
2018-09-18T14:36:04.278Z,27.70
2018-09-18T14:38:33.494Z,27.70
2018-09-18T14:41:03.170Z,27.70
2018-09-18T14:43:32.000Z,27.70
2018-09-18T14:46:02.001Z,27.70
2018-09-18T14:48:29.698Z,27.80
2018-09-18T14:51:01.542Z,27.70
2018-09-18T14:53:29.242Z,27.80
2018-09-18T14:55:58.263Z,27.80
2018-09-18T14:58:26.107Z,27.90
2018-09-18T15:00:54.496Z,27.90
2018-09-18T15:03:22.731Z,27.90
2018-09-18T15:05:51.431Z,27.90
2018-09-18T15:08:25.769Z,28.00
2018-09-18T15:10:53.851Z,28.00
2018-09-18T15:13:21.867Z,28.00
2018-09-18T15:15:49.762Z,28.10
2018-09-18T15:18:21.822Z,28.10
2018-09-18T15:20:50.191Z,28.10
2018-09-18T15:23:17.994Z,28.10
2018-09-18T15:25:46.063Z,28.10
2018-09-18T15:28:18.872Z,28.00
2018-09-18T15:30:56.452Z,28.10
2018-09-18T15:33:25.191Z,28.10
2018-09-18T15:35:54.261Z,28.10
2018-09-18T15:38:23.415Z,28.10
2018-09-18T15:40:52.505Z,28.30
2018-09-18T15:43:20.857Z,28.30
2018-09-18T15:45:48.811Z,28.30
2018-09-18T15:48:22.019Z,28.30
2018-09-18T15:50:53.283Z,28.30
2018-09-18T15:53:21.503Z,28.30
2018-09-18T15:55:58.314Z,28.30
2018-09-18T15:58:29.208Z,28.30
2018-09-18T16:01:07.968Z,28.30
2018-09-18T16:03:35.734Z,28.30
2018-09-18T16:06:19.633Z,28.30
2018-09-18T16:08:52.206Z,28.30
2018-09-18T16:11:20.951Z,28.30
2018-09-18T16:13:50.269Z,28.30
2018-09-18T16:16:38.962Z,28.30
2018-09-18T16:19:07.963Z,28.30
2018-09-18T16:21:48.369Z,28.30
2018-09-18T16:24:22.593Z,28.30
2018-09-18T16:26:52.180Z,28.20
2018-09-18T16:32:08.974Z,28.20
2018-09-18T16:37:53.245Z,28.20
2018-09-18T16:40:26.949Z,28.10
2018-09-18T16:42:54.687Z,28.10
2018-09-18T16:45:22.740Z,28.10
2018-09-18T16:47:51.014Z,28.10
2018-09-18T16:50:23.558Z,28.10
2018-09-18T16:52:51.296Z,28.00
2018-09-18T16:55:25.887Z,28.00
2018-09-18T16:57:59.341Z,27.90
2018-09-18T17:00:33.508Z,27.90
2018-09-18T17:03:26.701Z,27.90
2018-09-18T17:06:00.916Z,27.90
2018-09-18T17:08:28.661Z,27.80
2018-09-18T17:10:56.767Z,27.80
2018-09-18T17:16:14.507Z,27.80
2018-09-18T17:18:54.120Z,27.70
2018-09-18T17:21:21.909Z,27.70
2018-09-18T17:23:49.785Z,27.60
2018-09-18T17:26:42.937Z,27.60
2018-09-18T17:29:10.920Z,27.60
2018-09-18T17:31:39.348Z,27.50
2018-09-18T17:34:08.205Z,27.50
2018-09-18T17:36:36.019Z,27.50
2018-09-18T17:39:06.366Z,27.40
2018-09-18T17:41:35.281Z,27.40
2018-09-18T17:44:03.745Z,27.30
2018-09-18T17:46:31.521Z,27.30
2018-09-18T17:52:02.764Z,27.30
2018-09-18T17:54:30.607Z,27.20
2018-09-18T17:56:58.892Z,27.20
2018-09-18T18:02:46.374Z,27.10
2018-09-18T18:05:14.615Z,27.10
2018-09-18T18:10:28.128Z,27.00
2018-09-18T18:12:56.624Z,26.90
2018-09-18T18:15:29.000Z,26.90
2018-09-18T18:17:57.169Z,26.90
2018-09-18T18:20:42.697Z,26.80
2018-09-18T18:23:10.640Z,26.90
2018-09-18T18:25:38.379Z,26.80
2018-09-18T18:30:47.310Z,26.70
2018-09-18T18:33:22.246Z,26.70
2018-09-18T18:35:50.085Z,26.70
2018-09-18T18:38:18.603Z,26.60
2018-09-18T18:40:47.654Z,26.60
2018-09-18T18:43:15.411Z,26.50
2018-09-18T18:45:43.351Z,26.50
2018-09-18T18:48:11.489Z,26.50
2018-09-18T18:50:39.268Z,26.50
2018-09-18T18:53:08.806Z,26.50
2018-09-18T18:55:36.573Z,26.50
2018-09-18T18:58:04.584Z,26.40
2018-09-18T19:00:45.026Z,26.40
2018-09-18T19:03:12.924Z,26.40
2018-09-18T19:05:44.551Z,26.30
2018-09-18T19:08:12.293Z,26.30
2018-09-18T19:10:42.449Z,26.30
2018-09-18T19:13:10.461Z,26.20
2018-09-18T19:15:38.097Z,26.20
2018-09-18T19:18:06.025Z,26.20
2018-09-18T19:20:34.239Z,26.10
2018-09-18T19:23:02.545Z,26.10
2018-09-18T19:25:32.710Z,26.10
2018-09-18T19:28:00.810Z,26.00
2018-09-18T19:30:28.530Z,26.00
2018-09-18T19:32:56.648Z,25.90
2018-09-18T19:35:25.110Z,25.90
2018-09-18T19:37:53.065Z,25.90
2018-09-18T19:43:06.418Z,25.80
2018-09-18T20:10:16.308Z,25.70
2018-09-18T20:12:44.567Z,25.20
2018-09-18T20:15:12.335Z,25.20
2018-09-18T20:17:40.045Z,25.20
2018-09-18T20:20:07.931Z,25.10
2018-09-18T20:22:36.500Z,25.20
2018-09-18T20:25:05.351Z,25.20
2018-09-18T20:27:33.561Z,25.10
2018-09-18T20:30:02.918Z,25.20
2018-09-18T20:32:30.657Z,25.20
2018-09-18T20:34:59.511Z,25.10
2018-09-18T20:37:27.259Z,25.10
2018-09-18T20:39:54.890Z,25.10
2018-09-18T20:42:22.522Z,25.10
2018-09-18T20:44:50.355Z,25.10
2018-09-18T20:47:18.163Z,25.00
2018-09-18T20:49:45.859Z,25.00
2018-09-18T20:52:13.518Z,24.90
2018-09-18T20:54:43.349Z,24.90
2018-09-18T20:57:11.046Z,24.90
2018-09-18T20:59:38.860Z,24.90
2018-09-18T21:02:07.689Z,24.80
2018-09-18T21:04:36.651Z,24.80
2018-09-18T21:07:04.909Z,24.80
2018-09-18T21:09:32.559Z,24.80
2018-09-18T21:12:00.719Z,24.70
2018-09-18T21:14:28.380Z,24.70
2018-09-18T21:16:56.040Z,24.70
2018-09-18T21:19:25.029Z,24.70
2018-09-18T21:21:52.956Z,24.60
2018-09-18T21:24:20.638Z,24.60
2018-09-18T21:26:48.403Z,24.60
2018-09-18T21:29:16.216Z,24.60
2018-09-18T21:31:43.870Z,24.50
2018-09-18T21:34:11.636Z,24.50
2018-09-18T21:36:39.477Z,24.30
2018-09-18T21:39:09.007Z,24.30
2018-09-18T21:41:36.973Z,24.30
2018-09-18T21:44:05.743Z,24.20
2018-09-18T21:46:33.907Z,24.20
2018-09-18T21:49:01.744Z,24.30
2018-09-18T21:51:30.672Z,24.20
2018-09-18T21:53:58.388Z,24.20
2018-09-18T21:56:26.030Z,24.20
2018-09-18T21:58:54.332Z,24.20
2018-09-18T22:01:21.985Z,24.20
2018-09-18T22:03:49.524Z,24.10
2018-09-18T22:06:17.307Z,24.10
2018-09-18T22:08:44.977Z,24.10
2018-09-18T22:11:12.623Z,24.10
2018-09-18T22:13:40.946Z,24.00
2018-09-18T22:16:09.010Z,24.00
2018-09-18T22:18:36.912Z,24.00
2018-09-18T22:21:04.581Z,24.00
2018-09-18T22:23:32.858Z,23.90
2018-09-18T22:26:00.612Z,23.90
2018-09-18T22:28:28.268Z,23.90
2018-09-18T22:30:55.847Z,23.90
2018-09-18T22:33:34.846Z,23.90
2018-09-18T22:36:02.609Z,23.90
2018-09-18T22:38:30.184Z,23.80
2018-09-18T22:40:59.005Z,23.80
2018-09-18T22:43:27.909Z,23.80
2018-09-18T22:45:55.667Z,23.80
2018-09-18T22:48:23.366Z,23.70
2018-09-18T22:50:50.943Z,23.70
2018-09-18T22:53:18.591Z,23.70
2018-09-18T22:55:46.206Z,23.60
2018-09-18T22:58:13.839Z,23.60
2018-09-18T23:00:41.424Z,23.60
2018-09-18T23:03:09.017Z,23.60
2018-09-18T23:05:36.689Z,23.50
2018-09-18T23:08:04.500Z,23.50
2018-09-18T23:10:32.151Z,23.50
2018-09-18T23:12:59.731Z,23.50
2018-09-18T23:15:27.322Z,23.50
2018-09-18T23:17:56.080Z,23.40
2018-09-18T23:20:23.698Z,23.40
2018-09-18T23:22:51.319Z,23.40
2018-09-18T23:25:18.981Z,23.30
2018-09-18T23:27:46.591Z,23.30
2018-09-18T23:30:14.217Z,23.30
2018-09-18T23:32:44.339Z,23.30
2018-09-18T23:35:17.902Z,23.30
2018-09-18T23:37:45.635Z,23.30
2018-09-18T23:40:13.176Z,23.20
2018-09-18T23:42:40.759Z,23.10
2018-09-18T23:45:08.444Z,23.10
2018-09-18T23:47:36.200Z,23.00
2018-09-18T23:50:03.936Z,23.00
2018-09-18T23:52:31.700Z,23.00
2018-09-18T23:54:59.385Z,23.00
2018-09-18T23:57:27.030Z,23.00
2018-09-18T23:59:54.639Z,22.90
